Time;durP1;ratioP1;P1;durP2;ratioP2;P2;SDS_P1;SDS_P2;PMS_P1;PMS_P2;Temp;Humidity;BMP_temperature;BMP_pressure;BME280_temperature;BME280_humidity;BME280_pressure;Samples;Min_cycle;Max_cycle;Signal;HPM_P1;HPM_P2
2022/10/25 00:00:56;;;;;;;11.60;2.28;;;14.80;99.90;;;;;;4136720;28;20046;-69
2022/10/25 00:02:56;;;;;;;10.15;1.80;;;14.90;99.90;;;;;;4138866;28;20031;-69
2022/10/25 00:04:57;;;;;;;4.13;1.50;;;14.90;99.90;;;;;;4141873;28;20384;-69
2022/10/25 00:06:57;;;;;;;6.15;1.95;;;14.90;99.90;;;;;;4140782;28;20040;-69
2022/10/25 00:08:58;;;;;;;10.82;1.67;;;14.90;99.90;;;;;;4142193;28;20045;-69
2022/10/25 00:10:59;;;;;;;5.85;1.58;;;14.90;99.90;;;;;;4154943;28;20025;-69
2022/10/25 00:12:59;;;;;;;5.32;1.73;;;14.90;99.90;;;;;;4138895;28;20042;-70
2022/10/25 00:15:01;;;;;;;5.85;1.60;;;14.90;99.90;;;;;;4139921;28;20477;-70
2022/10/25 00:17:01;;;;;;;9.75;2.20;;;14.90;99.90;;;;;;4140649;28;20414;-69
2022/10/25 00:19:03;;;;;;;5.88;1.23;;;14.80;99.90;;;;;;4141620;28;20076;-69
2022/10/25 00:21:04;;;;;;;5.97;1.10;;;14.80;99.90;;;;;;4139592;28;20062;-69
2022/10/25 00:23:04;;;;;;;10.98;1.80;;;14.90;99.90;;;;;;4140913;28;20061;-69
2022/10/25 00:25:07;;;;;;;10.05;1.90;;;14.90;99.90;;;;;;4140190;28;20627;-70
2022/10/25 00:27:08;;;;;;;4.70;1.48;;;14.90;99.90;;;;;;4138088;28;20529;-70
2022/10/25 00:29:10;;;;;;;5.93;1.70;;;15.00;99.90;;;;;;4141089;28;20057;-69
2022/10/25 00:31:14;;;;;;;5.43;1.58;;;15.00;99.90;;;;;;4139083;28;20048;-70
2022/10/25 00:33:14;;;;;;;4.68;1.55;;;15.00;99.90;;;;;;4141504;28;20026;-69
2022/10/25 00:35:15;;;;;;;5.07;1.65;;;15.00;99.90;;;;;;4138896;28;20510;-70
2022/10/25 00:37:15;;;;;;;7.68;1.70;;;15.00;99.90;;;;;;4140448;28;20121;-70
2022/10/25 00:39:16;;;;;;;5.57;1.30;;;15.00;99.90;;;;;;4137686;28;20042;-70
2022/10/25 00:41:19;;;;;;;6.28;1.63;;;15.00;99.90;;;;;;4139549;28;20034;-70
2022/10/25 00:43:35;;;;;;;9.15;1.63;;;15.00;99.90;;;;;;4140495;28;20045;-69
2022/10/25 00:45:36;;;;;;;6.22;1.50;;;14.90;99.90;;;;;;4138937;28;20046;-69
2022/10/25 00:47:40;;;;;;;5.93;1.95;;;15.00;99.90;;;;;;4137603;28;20101;-70
2022/10/25 00:49:42;;;;;;;8.38;1.83;;;15.00;99.90;;;;;;4153537;28;20062;-69
2022/10/25 00:51:43;;;;;;;4.57;1.70;;;15.00;99.90;;;;;;4138358;28;20042;-70
2022/10/25 00:53:44;;;;;;;6.40;1.52;;;15.00;99.90;;;;;;4142175;28;20057;-70
2022/10/25 00:56:01;;;;;;;11.55;2.33;;;15.00;99.90;;;;;;4139647;28;20054;-69
2022/10/25 00:58:08;;;;;;;7.20;1.42;;;14.90;99.90;;;;;;4153220;28;20037;-69
2022/10/25 01:00:09;;;;;;;4.00;1.30;;;14.90;99.90;;;;;;4132484;28;20038;-69
2022/10/25 01:02:10;;;;;;;6.03;1.48;;;15.00;99.90;;;;;;4122849;28;20042;-70
2022/10/25 01:04:16;;;;;;;4.30;1.25;;;15.00;99.90;;;;;;4123731;28;20407;-70
2022/10/25 01:06:30;;;;;;;4.30;1.40;;;14.90;99.90;;;;;;4123111;28;20045;-70
2022/10/25 01:08:32;;;;;;;6.68;1.48;;;14.90;99.90;;;;;;4128541;28;20514;-70
2022/10/25 01:10:32;;;;;;;8.23;1.52;;;15.00;99.90;;;;;;4122476;28;20023;-69
2022/10/25 01:12:33;;;;;;;6.35;1.63;;;14.90;99.90;;;;;;4135428;28;20550;-69
2022/10/25 01:14:35;;;;;;;5.95;1.30;;;15.00;99.90;;;;;;4121538;28;20046;-70
2022/10/25 01:17:06;;;;;;;5.78;1.80;;;14.90;99.90;;;;;;4120876;28;20042;-69
2022/10/25 01:19:19;;;;;;;4.80;1.38;;;14.90;99.90;;;;;;4120518;28;20030;-69
2022/10/25 01:21:22;;;;;;;6.60;2.03;;;14.90;99.90;;;;;;4117994;28;20121;-69
2022/10/25 01:23:57;;;;;;;6.03;1.75;;;14.90;99.90;;;;;;4122233;28;20030;-69
2022/10/25 01:26:27;;;;;;;6.20;1.60;;;14.90;99.90;;;;;;4122664;28;20034;-69
2022/10/25 01:28:57;;;;;;;3.47;1.55;;;15.00;99.90;;;;;;4137284;28;20116;-69
2022/10/25 01:31:10;;;;;;;4.18;1.50;;;15.00;99.90;;;;;;4125639;28;20027;-69
2022/10/25 01:33:35;;;;;;;5.25;1.95;;;15.00;99.90;;;;;;4128909;28;20037;-69
2022/10/25 01:36:01;;;;;;;3.83;1.13;;;15.00;99.90;;;;;;4145307;28;20495;-70
2022/10/25 01:38:26;;;;;;;8.15;1.50;;;15.00;99.90;;;;;;4116303;28;20038;-70
2022/10/25 01:40:51;;;;;;;8.68;1.70;;;15.00;99.90;;;;;;4126302;28;20039;-69
2022/10/25 01:43:12;;;;;;;3.58;1.30;;;15.00;99.90;;;;;;4126581;28;20112;-69
2022/10/25 01:45:30;;;;;;;3.53;1.33;;;15.00;99.90;;;;;;4129076;28;20431;-69
2022/10/25 01:47:40;;;;;;;6.47;1.55;;;15.00;99.90;;;;;;4128390;28;20027;-70
2022/10/25 01:50:20;;;;;;;9.85;1.88;;;15.00;99.90;;;;;;4126767;28;20111;-70
2022/10/25 01:52:22;;;;;;;7.55;1.75;;;15.00;99.90;;;;;;4134715;28;20029;-69
2022/10/25 01:54:24;;;;;;;;;;;15.00;99.90;;;;;;4146259;28;20033;-69
2022/10/25 01:56:44;;;;;;;9.27;1.80;;;15.00;99.90;;;;;;4147348;28;19964;-69
2022/10/25 01:59:03;;;;;;;5.60;1.58;;;15.00;99.90;;;;;;4141665;28;20121;-70
2022/10/25 02:01:22;;;;;;;6.43;1.77;;;15.00;99.90;;;;;;4143539;28;20029;-70
2022/10/25 02:03:39;;;;;;;7.20;1.55;;;15.00;99.90;;;;;;4140864;28;20133;-69
2022/10/25 02:05:58;;;;;;;8.45;1.70;;;15.00;99.90;;;;;;4142661;28;20104;-70
2022/10/25 02:08:05;;;;;;;5.43;1.48;;;15.00;99.90;;;;;;4126779;28;20088;-70
2022/10/25 02:10:22;;;;;;;4.53;1.40;;;15.10;99.90;;;;;;4128361;28;20069;-69
2022/10/25 02:12:32;;;;;;;5.30;1.83;;;15.00;99.90;;;;;;4128436;28;20681;-69
2022/10/25 02:14:38;;;;;;;3.42;1.30;;;15.00;99.90;;;;;;4143220;28;20080;-69
2022/10/25 02:16:48;;;;;;;4.25;1.40;;;15.00;99.90;;;;;;4124256;28;20504;-70
2022/10/25 02:18:53;;;;;;;6.35;1.88;;;15.10;99.90;;;;;;4139686;28;20116;-70
2022/10/25 02:20:55;;;;;;;7.97;1.88;;;15.00;99.90;;;;;;4126022;28;20145;-69
2022/10/25 02:22:58;;;;;;;3.97;1.60;;;15.00;99.90;;;;;;4143388;28;20466;-69
2022/10/25 02:24:59;;;;;;;;;;;15.10;99.90;;;;;;4139031;28;20568;-69
2022/10/25 02:27:03;;;;;;;8.85;1.83;;;15.10;99.90;;;;;;4129389;28;19933;-69
2022/10/25 02:29:06;;;;;;;6.78;1.60;;;15.10;99.90;;;;;;4125640;28;20054;-69
2022/10/25 02:31:13;;;;;;;6.20;2.00;;;15.00;99.90;;;;;;4126376;28;20053;-70
2022/10/25 02:33:13;;;;;;;7.65;1.77;;;15.00;99.90;;;;;;4125787;28;20030;-69
2022/10/25 02:35:16;;;;;;;5.65;1.80;;;15.00;99.90;;;;;;4130163;28;20511;-70
2022/10/25 02:37:17;;;;;;;;;;;15.10;99.90;;;;;;4125118;28;20500;-70
2022/10/25 02:39:20;;;;;;;6.05;1.65;;;15.00;99.90;;;;;;4121473;28;20047;-69
2022/10/25 02:41:21;;;;;;;7.60;1.50;;;15.10;99.90;;;;;;4144838;28;20525;-69
2022/10/25 02:43:22;;;;;;;8.13;2.20;;;15.10;99.90;;;;;;4129504;28;20122;-69
2022/10/25 02:45:23;;;;;;;4.63;1.40;;;15.00;99.90;;;;;;4140712;28;20121;-69
2022/10/25 02:47:23;;;;;;;9.40;1.63;;;15.00;99.90;;;;;;4142728;28;20076;-65
2022/10/25 02:49:24;;;;;;;7.07;1.80;;;15.00;99.90;;;;;;4140773;28;20026;-69
2022/10/25 02:51:24;;;;;;;3.70;1.40;;;15.00;99.90;;;;;;4141906;28;20041;-69
2022/10/25 02:53:25;;;;;;;5.25;1.45;;;15.00;99.90;;;;;;4141737;28;20038;-69
2022/10/25 02:55:25;;;;;;;8.90;2.00;;;15.00;99.90;;;;;;4140984;28;20050;-69
2022/10/25 02:57:34;;;;;;;7.60;1.58;;;15.00;99.90;;;;;;4142486;28;20037;-69
2022/10/25 02:59:35;;;;;;;4.72;1.67;;;15.00;99.90;;;;;;4141048;28;20042;-69
2022/10/25 03:01:36;;;;;;;4.40;1.38;;;15.00;99.90;;;;;;4141086;28;20042;-69
2022/10/25 03:03:37;;;;;;;8.10;1.92;;;15.00;99.90;;;;;;4159217;28;20475;-69
2022/10/25 03:05:37;;;;;;;4.63;1.63;;;15.00;99.90;;;;;;4141281;28;20558;-70
2022/10/25 03:07:38;;;;;;;9.40;1.42;;;15.00;99.90;;;;;;4155295;28;20045;-71
2022/10/25 03:09:38;;;;;;;6.32;1.65;;;14.90;99.90;;;;;;4142567;28;20022;-69
2022/10/25 03:11:39;;;;;;;3.80;1.20;;;14.90;99.90;;;;;;4140700;28;20026;-69
2022/10/25 03:13:39;;;;;;;7.47;1.92;;;15.00;99.90;;;;;;4157968;28;20147;-69
2022/10/25 03:15:40;;;;;;;8.73;1.80;;;14.90;99.90;;;;;;4142708;28;20496;-70
2022/10/25 03:17:41;;;;;;;6.53;1.63;;;15.00;99.90;;;;;;4143443;28;20053;-70
2022/10/25 03:19:42;;;;;;;4.18;1.30;;;15.00;99.90;;;;;;4142206;28;20491;-69
2022/10/25 03:21:42;;;;;;;6.07;1.77;;;15.00;99.90;;;;;;4139889;28;20364;-70
2022/10/25 03:23:43;;;;;;;3.70;1.23;;;14.90;99.90;;;;;;4143930;28;20030;-70
2022/10/25 03:25:43;;;;;;;5.95;1.50;;;15.00;99.90;;;;;;4141980;28;20105;-70
2022/10/25 03:27:44;;;;;;;4.75;1.48;;;15.00;99.90;;;;;;4142446;28;20046;-70
2022/10/25 03:29:44;;;;;;;9.48;1.42;;;14.90;99.90;;;;;;4139465;28;20037;-70
2022/10/25 03:31:45;;;;;;;4.40;1.50;;;14.90;99.90;;;;;;4140655;28;20478;-70
2022/10/25 03:33:46;;;;;;;5.88;1.40;;;15.00;99.90;;;;;;4141879;28;20038;-69
2022/10/25 03:35:50;;;;;;;5.07;1.60;;;15.00;99.90;;;;;;4140985;28;20037;-69
2022/10/25 03:37:52;;;;;;;4.50;1.33;;;15.00;99.90;;;;;;4142163;28;20113;-69
2022/10/25 03:39:53;;;;;;;5.28;1.80;;;15.00;99.90;;;;;;4140625;28;20037;-69
2022/10/25 03:41:53;;;;;;;7.78;2.00;;;15.00;99.90;;;;;;4140721;28;20613;-70
2022/10/25 03:43:54;;;;;;;5.05;1.50;;;14.90;99.90;;;;;;4142510;28;20034;-69
2022/10/25 03:45:54;;;;;;;8.07;1.50;;;15.00;99.90;;;;;;4141470;28;20117;-69
2022/10/25 03:47:55;;;;;;;4.70;1.83;;;15.00;99.90;;;;;;4142937;28;20057;-69
2022/10/25 03:49:55;;;;;;;5.60;1.40;;;15.00;99.90;;;;;;4139044;28;20504;-69
2022/10/25 03:51:56;;;;;;;5.65;1.48;;;15.00;99.90;;;;;;4140742;28;20426;-69
2022/10/25 03:53:56;;;;;;;7.97;1.92;;;15.00;99.90;;;;;;4142087;28;20045;-70
2022/10/25 03:55:57;;;;;;;6.20;1.63;;;15.00;99.90;;;;;;4139030;28;20072;-69
2022/10/25 03:57:57;;;;;;;8.80;2.17;;;15.00;99.90;;;;;;4139834;28;20037;-69
2022/10/25 03:59:58;;;;;;;4.30;1.85;;;15.00;99.90;;;;;;4139644;28;20105;-69
2022/10/25 04:01:59;;;;;;;6.95;1.63;;;15.00;99.90;;;;;;4138068;28;20029;-69
2022/10/25 04:04:00;;;;;;;8.07;2.10;;;15.00;99.90;;;;;;4156122;28;20065;-69
2022/10/25 04:06:01;;;;;;;7.22;1.70;;;15.00;99.90;;;;;;4138859;28;20037;-69
2022/10/25 04:08:01;;;;;;;6.72;1.75;;;15.00;99.90;;;;;;4142872;28;20034;-70
2022/10/25 04:10:03;;;;;;;10.65;2.40;;;15.00;99.90;;;;;;4139140;28;20041;-70
2022/10/25 04:12:04;;;;;;;6.45;1.55;;;15.00;99.90;;;;;;4151200;28;20483;-69
2022/10/25 04:14:04;;;;;;;6.15;1.73;;;15.00;99.90;;;;;;4139439;28;20088;-69
2022/10/25 04:16:08;;;;;;;6.57;1.85;;;15.00;99.90;;;;;;4140004;28;20048;-70
2022/10/25 04:18:09;;;;;;;7.30;1.60;;;15.00;99.90;;;;;;4141625;28;20050;-70
2022/10/25 04:20:10;;;;;;;7.88;1.77;;;14.90;99.90;;;;;;4137551;28;20489;-70
2022/10/25 04:22:12;;;;;;;12.82;2.20;;;15.00;99.90;;;;;;4156338;28;20103;-70
2022/10/25 04:24:12;;;;;;;4.70;1.10;;;15.00;99.90;;;;;;4138771;28;20058;-70
2022/10/25 04:26:16;;;;;;;17.58;2.40;;;15.00;99.90;;;;;;4139704;28;20045;-70
2022/10/25 04:28:16;;;;;;;4.15;1.48;;;14.90;99.90;;;;;;4141682;28;20080;-70
2022/10/25 04:30:17;;;;;;;5.93;1.60;;;14.90;99.90;;;;;;4150325;28;20341;-70
2022/10/25 04:32:18;;;;;;;7.80;1.63;;;14.90;99.90;;;;;;4138150;28;20112;-70
2022/10/25 04:34:18;;;;;;;5.45;1.70;;;14.90;99.90;;;;;;4144512;28;20543;-70
2022/10/25 04:36:19;;;;;;;6.00;1.55;;;14.90;99.90;;;;;;4141782;28;20479;-70
2022/10/25 04:38:20;;;;;;;5.70;1.52;;;14.90;99.90;;;;;;4139362;28;20038;-70
2022/10/25 04:40:21;;;;;;;6.97;1.90;;;14.90;99.90;;;;;;4139831;28;20048;-70
2022/10/25 04:42:21;;;;;;;8.23;1.80;;;15.00;99.90;;;;;;4138268;28;20499;-70
2022/10/25 04:44:22;;;;;;;5.75;1.58;;;14.90;99.90;;;;;;4142621;28;20030;-70
2022/10/25 04:46:22;;;;;;;4.60;1.42;;;14.90;99.90;;;;;;4137454;28;20033;-69
2022/10/25 04:48:23;;;;;;;6.32;1.65;;;14.90;99.90;;;;;;4155785;28;20041;-69
2022/10/25 04:50:23;;;;;;;4.65;1.30;;;14.90;99.90;;;;;;4138461;28;20042;-69
2022/10/25 04:52:24;;;;;;;6.90;1.90;;;14.90;99.90;;;;;;4154723;28;20029;-69
2022/10/25 04:54:25;;;;;;;4.43;1.15;;;14.90;99.90;;;;;;4141515;28;20099;-69
2022/10/25 04:56:27;;;;;;;5.03;1.77;;;14.90;99.90;;;;;;4138764;28;20037;-70
2022/10/25 04:58:28;;;;;;;7.95;1.85;;;15.00;99.90;;;;;;4139563;28;20041;-69
2022/10/25 05:00:29;;;;;;;6.22;1.38;;;14.90;99.90;;;;;;4134475;28;20100;-69
2022/10/25 05:02:29;;;;;;;4.38;1.50;;;14.90;99.90;;;;;;4136208;28;20435;-70
2022/10/25 05:04:30;;;;;;;9.57;1.77;;;14.90;99.90;;;;;;4139875;28;20508;-69
2022/10/25 05:06:31;;;;;;;7.35;1.85;;;14.80;99.90;;;;;;4139148;28;20069;-69
2022/10/25 05:08:32;;;;;;;6.65;1.63;;;14.80;99.90;;;;;;4139114;28;20041;-70
2022/10/25 05:10:32;;;;;;;5.97;1.70;;;14.90;99.90;;;;;;4136191;28;20040;-70
2022/10/25 05:12:33;;;;;;;5.72;1.70;;;14.80;99.90;;;;;;4140644;28;20118;-69
2022/10/25 05:14:33;;;;;;;5.75;1.98;;;14.80;99.90;;;;;;4136576;28;20043;-70
2022/10/25 05:16:34;;;;;;;5.72;1.63;;;14.80;99.90;;;;;;4135165;28;20491;-70
2022/10/25 05:18:35;;;;;;;2.95;1.40;;;14.80;99.90;;;;;;4138983;28;20511;-70
2022/10/25 05:20:35;;;;;;;4.80;1.33;;;14.80;99.90;;;;;;4152668;28;20119;-70
2022/10/25 05:22:36;;;;;;;3.88;1.25;;;14.80;99.90;;;;;;4135928;28;20454;-70
2022/10/25 05:24:36;;;;;;;9.48;2.22;;;14.80;99.90;;;;;;4138698;28;20610;-70
2022/10/25 05:26:37;;;;;;;8.20;1.60;;;14.80;99.90;;;;;;4151733;28;20073;-70
2022/10/25 05:28:39;;;;;;;5.00;1.30;;;14.80;99.90;;;;;;4136555;28;20023;-70
2022/10/25 05:30:41;;;;;;;;;;;14.80;99.90;;;;;;4137817;28;20034;-70
2022/10/25 05:32:42;;;;;;;4.85;1.30;;;14.80;99.90;;;;;;4138195;28;19980;-69
2022/10/25 05:34:43;;;;;;;6.40;1.70;;;14.80;99.90;;;;;;4140532;28;20034;-69
2022/10/25 05:36:43;;;;;;;5.13;1.73;;;14.90;99.90;;;;;;4140568;28;20045;-70
2022/10/25 05:38:44;;;;;;;5.88;1.38;;;14.80;99.90;;;;;;4137389;28;20026;-70
2022/10/25 05:40:52;;;;;;;3.95;1.08;;;14.80;99.90;;;;;;4135029;28;20412;-69
2022/10/25 05:42:53;;;;;;;8.77;1.50;;;14.90;99.90;;;;;;4156419;28;20060;-70
2022/10/25 05:44:54;;;;;;;4.88;1.45;;;14.90;99.90;;;;;;4139298;28;20030;-69
2022/10/25 05:46:54;;;;;;;9.63;1.92;;;14.80;99.90;;;;;;4139170;28;20022;-70
2022/10/25 05:48:58;;;;;;;5.82;1.80;;;14.90;99.90;;;;;;4153253;28;20152;-70
2022/10/25 05:51:19;;;;;;;5.45;1.73;;;14.90;99.90;;;;;;4139219;28;20406;-69
2022/10/25 05:53:20;;;;;;;4.03;1.27;;;14.90;99.90;;;;;;4132907;28;20037;-70
2022/10/25 05:55:20;;;;;;;6.75;1.48;;;14.90;99.90;;;;;;4137610;28;20411;-70
2022/10/25 05:57:21;;;;;;;7.78;1.77;;;14.90;99.90;;;;;;4137261;28;20038;-70
2022/10/25 05:59:22;;;;;;;4.88;1.55;;;14.90;99.90;;;;;;4137076;28;20026;-70
2022/10/25 06:01:25;;;;;;;8.10;1.67;;;14.90;99.90;;;;;;4139985;28;20073;-70
2022/10/25 06:03:25;;;;;;;5.57;1.60;;;14.90;99.90;;;;;;4139881;28;20042;-69
2022/10/25 06:05:26;;;;;;;3.80;1.40;;;14.90;99.90;;;;;;4153107;28;20410;-69
2022/10/25 06:07:26;;;;;;;5.70;1.60;;;14.90;99.90;;;;;;4138060;28;20026;-70
2022/10/25 06:09:27;;;;;;;9.68;1.73;;;14.90;99.90;;;;;;4135285;28;20399;-69
2022/10/25 06:11:29;;;;;;;4.18;1.35;;;14.90;99.90;;;;;;4139811;28;20411;-69
2022/10/25 06:13:30;;;;;;;5.38;1.63;;;14.90;99.90;;;;;;4142150;28;20454;-68
2022/10/25 06:15:31;;;;;;;5.80;1.50;;;14.90;99.90;;;;;;4148312;28;20045;-69
2022/10/25 06:17:31;;;;;;;6.35;1.35;;;14.90;99.90;;;;;;4143792;28;20088;-69
2022/10/25 06:19:32;;;;;;;2.78;1.13;;;14.90;99.90;;;;;;4138525;28;20034;-68
2022/10/25 06:21:33;;;;;;;6.18;1.88;;;14.90;99.90;;;;;;4139174;28;20042;-69
2022/10/25 06:23:36;;;;;;;4.38;1.52;;;14.80;99.90;;;;;;4138102;28;20060;-69
2022/10/25 06:25:37;;;;;;;5.78;1.67;;;14.80;99.90;;;;;;4152479;28;20085;-69
2022/10/25 06:27:37;;;;;;;5.30;1.58;;;14.80;99.90;;;;;;4138326;28;20038;-69
2022/10/25 06:29:38;;;;;;;8.43;1.70;;;14.80;99.90;;;;;;4135524;28;20109;-69
2022/10/25 06:31:40;;;;;;;6.82;1.58;;;14.80;99.90;;;;;;4140521;28;20038;-69
2022/10/25 06:33:41;;;;;;;8.00;2.08;;;14.80;99.90;;;;;;4142701;28;20054;-69
2022/10/25 06:35:42;;;;;;;4.57;1.60;;;14.80;99.90;;;;;;4155351;28;20033;-69
2022/10/25 06:37:42;;;;;;;3.95;1.40;;;14.80;99.90;;;;;;4142096;28;20064;-71
2022/10/25 06:39:43;;;;;;;6.88;1.88;;;14.70;99.90;;;;;;4138646;28;20041;-69
2022/10/25 06:41:43;;;;;;;5.30;1.65;;;14.70;99.90;;;;;;4139581;28;21641;-69
2022/10/25 06:43:44;;;;;;;8.77;1.52;;;14.70;99.90;;;;;;4141053;28;20145;-69
2022/10/25 06:45:44;;;;;;;6.65;2.08;;;14.70;99.90;;;;;;4149277;28;21522;-69
2022/10/25 06:47:45;;;;;;;7.10;1.67;;;14.70;99.90;;;;;;4137259;28;20799;-69
2022/10/25 06:49:46;;;;;;;3.38;1.60;;;14.70;99.90;;;;;;4139391;28;20117;-69
2022/10/25 06:51:46;;;;;;;4.53;1.35;;;14.60;99.90;;;;;;4155617;28;20044;-69
2022/10/25 06:53:51;;;;;;;7.18;1.92;;;14.60;99.90;;;;;;4139967;28;20040;-69
2022/10/25 06:55:52;;;;;;;6.47;1.65;;;14.70;99.90;;;;;;4136215;28;20042;-69
2022/10/25 06:57:55;;;;;;;3.55;1.60;;;14.60;99.90;;;;;;4141491;28;20121;-69
2022/10/25 06:59:56;;;;;;;5.15;1.65;;;14.60;99.90;;;;;;4138904;28;20133;-68
2022/10/25 07:01:57;;;;;;;8.77;2.35;;;14.60;99.90;;;;;;4156234;28;20552;-68
2022/10/25 07:03:58;;;;;;;4.60;1.70;;;14.60;99.90;;;;;;4141536;28;20662;-69
2022/10/25 07:06:09;;;;;;;5.28;1.60;;;14.60;99.90;;;;;;4141388;28;20041;-69
2022/10/25 07:08:10;;;;;;;7.53;2.33;;;14.50;99.90;;;;;;4139362;28;20097;-69
2022/10/25 07:10:10;;;;;;;4.15;1.38;;;14.50;99.90;;;;;;4136334;28;20381;-68
2022/10/25 07:12:11;;;;;;;5.82;1.95;;;14.50;99.90;;;;;;4136612;28;20041;-69
2022/10/25 07:14:11;;;;;;;7.03;1.60;;;14.50;99.90;;;;;;4144224;28;20068;-69
2022/10/25 07:16:14;;;;;;;7.25;1.80;;;14.50;99.90;;;;;;4140440;28;20044;-69
2022/10/25 07:18:16;;;;;;;4.07;1.60;;;14.50;99.90;;;;;;4140155;28;20060;-69
2022/10/25 07:20:17;;;;;;;4.32;1.60;;;14.50;99.90;;;;;;4145121;28;20567;-69
2022/10/25 07:22:17;;;;;;;9.25;1.98;;;14.60;99.90;;;;;;4139701;28;20065;-69
2022/10/25 07:24:18;;;;;;;6.47;1.63;;;14.60;99.90;;;;;;4144285;28;20042;-69
2022/10/25 07:26:22;;;;;;;9.48;1.80;;;14.60;99.90;;;;;;4143082;28;20037;-69
2022/10/25 07:28:23;;;;;;;5.88;1.70;;;14.70;99.90;;;;;;4154920;28;20040;-69
2022/10/25 07:30:23;;;;;;;7.32;2.30;;;14.70;99.90;;;;;;4143190;28;20038;-69
2022/10/25 07:32:24;;;;;;;4.80;1.48;;;14.90;99.90;;;;;;4139590;28;20052;-69
2022/10/25 07:34:24;;;;;;;9.98;2.40;;;14.90;99.90;;;;;;4140833;28;20088;-69
2022/10/25 07:36:26;;;;;;;7.28;1.88;;;15.00;99.90;;;;;;4137237;28;20049;-68
2022/10/25 07:38:26;;;;;;;6.00;1.98;;;15.10;99.90;;;;;;4138275;28;20506;-69
2022/10/25 07:40:27;;;;;;;5.22;1.90;;;15.20;99.90;;;;;;4137815;28;21193;-69
2022/10/25 07:42:27;;;;;;;6.63;1.95;;;15.20;99.90;;;;;;4139089;28;20041;-69
2022/10/25 07:44:28;;;;;;;7.85;2.00;;;15.30;99.90;;;;;;4156186;28;20030;-69
2022/10/25 07:46:28;;;;;;;9.35;2.10;;;15.40;99.90;;;;;;4140260;28;20384;-69
2022/10/25 07:48:29;;;;;;;7.65;2.10;;;15.50;99.90;;;;;;4141100;28;20042;-69
2022/10/25 07:50:30;;;;;;;5.22;2.08;;;15.60;99.90;;;;;;4138370;28;20095;-69
2022/10/25 07:52:30;;;;;;;7.20;1.60;;;15.80;99.90;;;;;;4138901;28;20109;-68
2022/10/25 07:54:31;;;;;;;6.22;1.80;;;16.00;99.90;;;;;;4155167;28;20390;-69
2022/10/25 07:56:32;;;;;;;6.68;1.85;;;16.10;99.90;;;;;;4138751;28;20034;-69
2022/10/25 07:58:32;;;;;;;5.90;2.00;;;16.30;99.90;;;;;;4139444;28;20030;-69
2022/10/25 08:00:34;;;;;;;6.25;1.92;;;16.50;99.90;;;;;;4139377;28;20045;-68
2022/10/25 08:02:35;;;;;;;4.75;1.80;;;16.70;99.90;;;;;;4140568;28;20045;-69
2022/10/25 08:04:36;;;;;;;2.97;1.38;;;16.90;99.90;;;;;;4155641;28;20029;-68
2022/10/25 08:06:36;;;;;;;6.18;2.03;;;17.20;99.90;;;;;;4139729;28;20088;-69
2022/10/25 08:08:37;;;;;;;4.93;1.63;;;17.50;99.90;;;;;;4141022;28;20034;-69
2022/10/25 08:10:38;;;;;;;3.45;1.52;;;17.70;99.90;;;;;;4139863;28;20125;-69
2022/10/25 08:12:38;;;;;;;8.50;1.65;;;17.90;99.90;;;;;;4139270;28;20038;-69
2022/10/25 08:14:39;;;;;;;5.45;1.60;;;18.10;99.90;;;;;;4140217;28;20050;-69
2022/10/25 08:16:39;;;;;;;5.00;1.45;;;18.30;99.90;;;;;;4151016;28;20033;-69
2022/10/25 08:18:42;;;;;;;5.25;1.73;;;18.60;99.90;;;;;;4139780;28;20034;-69
2022/10/25 08:20:42;;;;;;;2.33;1.13;;;18.70;99.90;;;;;;4139164;28;20025;-69
2022/10/25 08:22:43;;;;;;;6.70;1.65;;;18.80;99.90;;;;;;4155137;28;20025;-70
2022/10/25 08:24:44;;;;;;;8.07;1.85;;;18.70;99.90;;;;;;4139476;28;20057;-69
2022/10/25 08:26:45;;;;;;;4.22;1.40;;;18.60;99.90;;;;;;4136706;28;20037;-70
2022/10/25 08:28:45;;;;;;;4.60;1.60;;;18.60;99.90;;;;;;4139969;28;20037;-69
2022/10/25 08:30:46;;;;;;;3.97;1.52;;;18.50;99.90;;;;;;4153112;28;20041;-69
2022/10/25 08:32:46;;;;;;;7.22;2.15;;;18.40;99.90;;;;;;4139838;28;20022;-69
2022/10/25 08:34:47;;;;;;;5.68;1.63;;;18.20;99.90;;;;;;4139602;28;20046;-69
2022/10/25 08:36:48;;;;;;;6.13;1.40;;;18.10;99.90;;;;;;4154350;28;20479;-69
2022/10/25 08:38:49;;;;;;;4.63;1.70;;;17.90;99.90;;;;;;4135974;28;20041;-69
2022/10/25 08:40:59;;;;;;;6.00;1.60;;;17.80;99.90;;;;;;4143883;28;20048;-69
2022/10/25 08:43:14;;;;;;;5.75;1.90;;;17.70;99.90;;;;;;4139236;28;20034;-69
2022/10/25 08:45:34;;;;;;;7.55;1.67;;;17.70;99.90;;;;;;4137145;28;20554;-69
2022/10/25 08:47:42;;;;;;;7.63;1.80;;;17.80;99.90;;;;;;4139462;28;20423;-70
2022/10/25 08:49:58;;;;;;;7.53;1.60;;;17.80;99.90;;;;;;4139124;28;20022;-69
2022/10/25 08:52:00;;;;;;;5.18;1.55;;;17.90;99.90;;;;;;4137905;28;20034;-69
2022/10/25 08:54:05;;;;;;;6.95;2.13;;;17.90;99.90;;;;;;4138084;28;20045;-68
2022/10/25 08:56:12;;;;;;;11.65;2.40;;;17.90;99.90;;;;;;4138024;28;20385;-69
2022/10/25 08:58:27;;;;;;;7.22;2.05;;;17.90;99.90;;;;;;4136993;28;20052;-69
2022/10/25 09:00:35;;;;;;;5.05;1.75;;;17.90;99.90;;;;;;4133738;28;20046;-69
2022/10/25 09:02:52;;;;;;;4.65;1.70;;;17.90;99.90;;;;;;4155374;28;20064;-69
2022/10/25 09:04:53;;;;;;;7.13;1.88;;;17.90;99.90;;;;;;4152922;28;20526;-69
2022/10/25 09:07:27;;;;;;;5.20;1.70;;;17.80;99.90;;;;;;4150862;28;20127;-69
2022/10/25 09:10:13;;;;;;;7.93;1.85;;;17.80;99.90;;;;;;4138184;28;20045;-69
2022/10/25 09:12:35;;;;;;;3.38;1.40;;;17.80;99.90;;;;;;4132200;28;20674;-69
2022/10/25 09:15:16;;;;;;;5.88;1.88;;;17.90;99.90;;;;;;4140308;28;20391;-69
2022/10/25 09:17:25;;;;;;;3.63;1.45;;;17.90;99.90;;;;;;4157025;28;20413;-69
2022/10/25 09:19:44;;;;;;;6.93;1.95;;;17.90;99.90;;;;;;4142315;28;20363;-69
2022/10/25 09:21:51;;;;;;;5.45;1.83;;;17.80;99.90;;;;;;4134373;28;20042;-69
2022/10/25 09:23:58;;;;;;;4.20;1.20;;;17.80;99.90;;;;;;4153075;28;20048;-69
2022/10/25 09:26:11;;;;;;;3.75;1.35;;;17.90;99.90;;;;;;4137165;28;20509;-68
2022/10/25 09:28:40;;;;;;;4.38;1.58;;;17.90;99.90;;;;;;4138674;28;20077;-69
2022/10/25 09:30:43;;;;;;;4.32;1.35;;;18.00;99.90;;;;;;4122023;28;20034;-69
2022/10/25 09:33:00;;;;;;;3.25;1.20;;;18.10;99.90;;;;;;4122860;28;20165;-69
2022/10/25 09:35:03;;;;;;;5.75;1.60;;;18.10;99.90;;;;;;4119643;28;20042;-69
2022/10/25 09:37:16;;;;;;;;;;;18.10;99.90;;;;;;4120484;28;20037;-69
2022/10/25 09:39:26;;;;;;;6.75;1.50;;;18.00;99.90;;;;;;4121247;28;20303;-69
2022/10/25 09:41:37;;;;;;;4.57;1.00;;;18.00;99.90;;;;;;4121797;28;20590;-69
2022/10/25 09:43:56;;;;;;;6.00;1.70;;;18.00;99.90;;;;;;4136444;28;20096;-69
2022/10/25 09:46:23;;;;;;;3.28;1.10;;;18.10;99.90;;;;;;4121640;28;20503;-70
2022/10/25 09:48:30;;;;;;;4.15;1.10;;;18.10;99.90;;;;;;4112985;28;20427;-69
2022/10/25 09:50:59;;;;;;;2.78;1.17;;;18.10;99.90;;;;;;4124765;28;20049;-69
2022/10/25 09:53:14;;;;;;;5.47;1.27;;;17.90;99.90;;;;;;4103478;28;20042;-69
2022/10/25 09:55:40;;;;;;;2.97;0.90;;;18.00;99.90;;;;;;4140576;28;20104;-69
2022/10/25 09:57:41;;;;;;;5.75;1.45;;;18.00;99.90;;;;;;4138588;28;20041;-69
2022/10/25 09:59:47;;;;;;;6.60;1.77;;;18.00;99.90;;;;;;4125627;28;20527;-69
2022/10/25 10:01:48;;;;;;;5.68;1.67;;;18.10;99.90;;;;;;4126188;28;20053;-69
2022/10/25 10:03:48;;;;;;;4.88;1.20;;;18.00;99.90;;;;;;4123195;28;20134;-69
2022/10/25 10:05:54;;;;;;;3.83;1.35;;;18.10;99.90;;;;;;4126612;28;20116;-69
2022/10/25 10:07:54;;;;;;;3.95;1.30;;;18.10;99.90;;;;;;4124728;28;20158;-69
2022/10/25 10:09:59;;;;;;;4.35;1.10;;;18.10;99.90;;;;;;4125198;28;20108;-69
2022/10/25 10:12:04;;;;;;;7.43;1.60;;;18.20;99.90;;;;;;4120903;28;20443;-68
2022/10/25 10:14:13;;;;;;;4.63;1.23;;;18.20;99.90;;;;;;4128895;28;20121;-69
2022/10/25 10:16:16;;;;;;;5.88;1.63;;;18.10;99.90;;;;;;4133649;28;20484;-69
2022/10/25 10:18:25;;;;;;;4.85;1.00;;;18.10;99.90;;;;;;4129809;28;20425;-69
2022/10/25 10:20:26;;;;;;;4.32;1.35;;;18.00;99.90;;;;;;4124563;28;20037;-69
2022/10/25 10:22:26;;;;;;;3.83;1.45;;;18.10;99.90;;;;;;4140989;28;20554;-69
2022/10/25 10:24:34;;;;;;;8.18;1.63;;;18.00;99.90;;;;;;4123639;28;20054;-70
2022/10/25 10:26:44;;;;;;;4.15;1.40;;;18.00;99.90;;;;;;4125163;28;20034;-69
2022/10/25 10:28:48;;;;;;;5.13;1.60;;;17.90;99.90;;;;;;4125172;28;20046;-69
2022/10/25 10:30:57;;;;;;;5.15;1.40;;;17.80;99.90;;;;;;4123585;28;20038;-69
2022/10/25 10:33:00;;;;;;;3.45;1.08;;;17.80;99.90;;;;;;4124348;28;20050;-69
2022/10/25 10:35:03;;;;;;;2.63;1.17;;;17.70;99.90;;;;;;4123952;28;20039;-69
2022/10/25 10:37:15;;;;;;;3.17;1.00;;;17.80;99.90;;;;;;4139459;28;20057;-69
2022/10/25 10:39:22;;;;;;;6.45;1.17;;;17.80;99.90;;;;;;4124890;28;20031;-69
2022/10/25 10:41:26;;;;;;;4.60;1.27;;;17.90;99.90;;;;;;4124739;28;20054;-69
2022/10/25 10:43:31;;;;;;;4.35;0.95;;;17.90;99.90;;;;;;4123835;28;20048;-69
2022/10/25 10:45:33;;;;;;;3.85;0.90;;;18.00;99.90;;;;;;4120443;28;20039;-68
2022/10/25 10:47:49;;;;;;;5.97;1.25;;;18.10;99.90;;;;;;4125432;28;20149;-69
2022/10/25 10:49:50;;;;;;;3.90;1.00;;;18.10;99.90;;;;;;4122934;28;20038;-69